sensor_id;sensor_type;location;lat;lon;timestamp;pressure;altitude;pressure_sealevel;temperature;humidity
9091;BME280;4581;42.416;25.598;2024-01-06T00:01:02;98338.69;;;9.50;nan
9091;BME280;4581;42.416;25.598;2024-01-06T00:03:29;98339.31;;;9.52;nan
9091;BME280;4581;42.416;25.598;2024-01-06T00:05:56;98345.38;;;9.54;nan
9091;BME280;4581;42.416;25.598;2024-01-06T00:08:23;98348.06;;;9.54;nan
9091;BME280;4581;42.416;25.598;2024-01-06T00:10:49;98346.72;;;9.58;nan
9091;BME280;4581;42.416;25.598;2024-01-06T00:13:16;98339.66;;;9.57;nan
9091;BME280;4581;42.416;25.598;2024-01-06T00:15:43;98339.66;;;9.57;nan
9091;BME280;4581;42.416;25.598;2024-01-06T00:18:09;98334.28;;;9.57;nan
9091;BME280;4581;42.416;25.598;2024-01-06T00:20:37;98335.75;;;9.59;nan
9091;BME280;4581;42.416;25.598;2024-01-06T00:23:04;98324.84;;;9.61;nan
9091;BME280;4581;42.416;25.598;2024-01-06T00:25:30;98326.69;;;9.60;nan
9091;BME280;4581;42.416;25.598;2024-01-06T00:27:57;98323.34;;;9.58;nan
9091;BME280;4581;42.416;25.598;2024-01-06T00:30:24;98324.19;;;9.59;nan
9091;BME280;4581;42.416;25.598;2024-01-06T00:32:51;98315.22;;;9.66;nan
9091;BME280;4581;42.416;25.598;2024-01-06T00:35:17;98314.88;;;9.69;nan
9091;BME280;4581;42.416;25.598;2024-01-06T00:37:44;98317.03;;;9.74;nan
9091;BME280;4581;42.416;25.598;2024-01-06T00:40:11;98310.34;;;9.70;nan
9091;BME280;4581;42.416;25.598;2024-01-06T00:42:38;98317.09;;;9.66;nan
9091;BME280;4581;42.416;25.598;2024-01-06T00:45:05;98318.09;;;9.65;nan
9091;BME280;4581;42.416;25.598;2024-01-06T00:47:33;98318.09;;;9.65;nan
9091;BME280;4581;42.416;25.598;2024-01-06T00:49:59;98316.06;;;9.67;nan
9091;BME280;4581;42.416;25.598;2024-01-06T00:52:26;98311.22;;;9.62;nan
9091;BME280;4581;42.416;25.598;2024-01-06T00:54:53;98291.53;;;9.62;nan
9091;BME280;4581;42.416;25.598;2024-01-06T00:57:19;98288.16;;;9.60;nan
9091;BME280;4581;42.416;25.598;2024-01-06T00:59:50;98289.19;;;9.59;nan
9091;BME280;4581;42.416;25.598;2024-01-06T01:02:17;98296.75;;;9.55;nan
9091;BME280;4581;42.416;25.598;2024-01-06T01:04:44;98292.53;;;9.61;nan
9091;BME280;4581;42.416;25.598;2024-01-06T01:07:12;98295.59;;;9.58;nan
9091;BME280;4581;42.416;25.598;2024-01-06T01:09:39;98297.59;;;9.56;nan
9091;BME280;4581;42.416;25.598;2024-01-06T01:12:06;98305.50;;;9.57;nan
9091;BME280;4581;42.416;25.598;2024-01-06T01:14:33;98294.03;;;9.63;nan
9091;BME280;4581;42.416;25.598;2024-01-06T01:16:59;98301.94;;;9.65;nan
9091;BME280;4581;42.416;25.598;2024-01-06T01:19:26;98291.69;;;9.60;nan
9091;BME280;4581;42.416;25.598;2024-01-06T01:21:53;98285.81;;;9.57;nan
9091;BME280;4581;42.416;25.598;2024-01-06T01:24:22;98281.81;;;9.53;nan
9091;BME280;4581;42.416;25.598;2024-01-06T01:26:50;98278.78;;;9.48;nan
9091;BME280;4581;42.416;25.598;2024-01-06T01:29:16;98277.78;;;9.49;nan
9091;BME280;4581;42.416;25.598;2024-01-06T01:31:43;98283.69;;;9.44;nan
9091;BME280;4581;42.416;25.598;2024-01-06T01:34:10;98288.91;;;9.46;nan
9091;BME280;4581;42.416;25.598;2024-01-06T01:36:37;98270.44;;;9.43;nan
9091;BME280;4581;42.416;25.598;2024-01-06T01:39:04;98285.06;;;9.40;nan
9091;BME280;4581;42.416;25.598;2024-01-06T01:41:31;98286.38;;;9.44;nan
9091;BME280;4581;42.416;25.598;2024-01-06T01:43:58;98274.78;;;9.44;nan
9091;BME280;4581;42.416;25.598;2024-01-06T01:46:26;98269.91;;;9.39;nan
9091;BME280;4581;42.416;25.598;2024-01-06T01:48:57;98260.38;;;9.28;nan
9091;BME280;4581;42.416;25.598;2024-01-06T01:51:30;98259.72;;;9.26;nan
9091;BME280;4581;42.416;25.598;2024-01-06T01:53:58;98247.94;;;9.27;nan
9091;BME280;4581;42.416;25.598;2024-01-06T01:56:26;98239.75;;;9.21;nan
9091;BME280;4581;42.416;25.598;2024-01-06T01:58:53;98248.31;;;9.16;nan
9091;BME280;4581;42.416;25.598;2024-01-06T02:01:20;98247.97;;;9.19;nan
9091;BME280;4581;42.416;25.598;2024-01-06T02:03:47;98227.53;;;9.10;nan
9091;BME280;4581;42.416;25.598;2024-01-06T02:06:14;98247.53;;;9.00;nan
9091;BME280;4581;42.416;25.598;2024-01-06T02:08:41;98247.25;;;8.86;nan
9091;BME280;4581;42.416;25.598;2024-01-06T02:11:07;98227.91;;;8.83;nan
9091;BME280;4581;42.416;25.598;2024-01-06T02:13:35;98233.28;;;8.83;nan
9091;BME280;4581;42.416;25.598;2024-01-06T02:16:03;98229.25;;;8.87;nan
9091;BME280;4581;42.416;25.598;2024-01-06T02:18:32;98224.94;;;8.78;nan
9091;BME280;4581;42.416;25.598;2024-01-06T02:21:01;98220.25;;;8.64;nan
9091;BME280;4581;42.416;25.598;2024-01-06T02:23:29;98209.34;;;8.57;nan
9091;BME280;4581;42.416;25.598;2024-01-06T02:25:56;98221.91;;;8.65;nan
9091;BME280;4581;42.416;25.598;2024-01-06T02:28:23;98203.97;;;8.57;nan
9091;BME280;4581;42.416;25.598;2024-01-06T02:30:50;98206.31;;;8.60;nan
9091;BME280;4581;42.416;25.598;2024-01-06T02:33:17;98211.88;;;8.42;nan
9091;BME280;4581;42.416;25.598;2024-01-06T02:35:46;98209.16;;;8.51;nan
9091;BME280;4581;42.416;25.598;2024-01-06T02:38:13;98217.75;;;8.54;nan
9091;BME280;4581;42.416;25.598;2024-01-06T02:40:39;98206.31;;;8.52;nan
9091;BME280;4581;42.416;25.598;2024-01-06T02:43:06;98216.72;;;8.55;nan
9091;BME280;4581;42.416;25.598;2024-01-06T02:45:33;98204.63;;;8.51;nan
9091;BME280;4581;42.416;25.598;2024-01-06T02:48:00;98198.78;;;8.48;nan
9091;BME280;4581;42.416;25.598;2024-01-06T02:50:27;98213.53;;;8.60;nan
9091;BME280;4581;42.416;25.598;2024-01-06T02:52:53;98212.38;;;8.62;nan
9091;BME280;4581;42.416;25.598;2024-01-06T02:55:20;98213.53;;;8.60;nan
9091;BME280;4581;42.416;25.598;2024-01-06T02:57:47;98206.97;;;8.70;nan
9091;BME280;4581;42.416;25.598;2024-01-06T03:00:14;98199.41;;;8.74;nan
9091;BME280;4581;42.416;25.598;2024-01-06T03:02:41;98206.13;;;8.78;nan
9091;BME280;4581;42.416;25.598;2024-01-06T03:05:09;98211.81;;;8.75;nan
9091;BME280;4581;42.416;25.598;2024-01-06T03:07:36;98203.72;;;8.83;nan
9091;BME280;4581;42.416;25.598;2024-01-06T03:10:03;98221.88;;;8.81;nan
9091;BME280;4581;42.416;25.598;2024-01-06T03:12:30;98221.72;;;8.82;nan
9091;BME280;4581;42.416;25.598;2024-01-06T03:14:59;98216.00;;;8.85;nan
9091;BME280;4581;42.416;25.598;2024-01-06T03:17:26;98221.53;;;8.84;nan
9091;BME280;4581;42.416;25.598;2024-01-06T03:19:53;98210.44;;;8.87;nan
9091;BME280;4581;42.416;25.598;2024-01-06T03:22:20;98209.44;;;8.88;nan
9091;BME280;4581;42.416;25.598;2024-01-06T03:24:46;98218.69;;;8.85;nan
9091;BME280;4581;42.416;25.598;2024-01-06T03:27:13;98217.69;;;8.86;nan
9091;BME280;4581;42.416;25.598;2024-01-06T03:29:40;98205.91;;;8.87;nan
9091;BME280;4581;42.416;25.598;2024-01-06T03:32:07;98200.53;;;8.79;nan
9091;BME280;4581;42.416;25.598;2024-01-06T03:34:34;98200.91;;;8.76;nan
9091;BME280;4581;42.416;25.598;2024-01-06T03:37:01;98193.50;;;8.78;nan
9091;BME280;4581;42.416;25.598;2024-01-06T03:39:27;98184.25;;;8.81;nan
9091;BME280;4581;42.416;25.598;2024-01-06T03:41:54;98192.19;;;8.74;nan
9091;BME280;4581;42.416;25.598;2024-01-06T03:44:21;98193.00;;;8.67;nan
9091;BME280;4581;42.416;25.598;2024-01-06T03:46:47;98196.91;;;8.64;nan
9091;BME280;4581;42.416;25.598;2024-01-06T03:49:14;98205.09;;;8.71;nan
9091;BME280;4581;42.416;25.598;2024-01-06T03:51:41;98191.84;;;8.69;nan
9091;BME280;4581;42.416;25.598;2024-01-06T03:54:08;98188.50;;;8.59;nan
9091;BME280;4581;42.416;25.598;2024-01-06T03:56:35;98198.41;;;8.51;nan
9091;BME280;4581;42.416;25.598;2024-01-06T03:59:01;98179.47;;;8.44;nan
9091;BME280;4581;42.416;25.598;2024-01-06T04:01:28;98179.13;;;8.39;nan
9091;BME280;4581;42.416;25.598;2024-01-06T04:03:55;98199.13;;;8.44;nan
9091;BME280;4581;42.416;25.598;2024-01-06T04:06:22;98203.66;;;8.36;nan
9091;BME280;4581;42.416;25.598;2024-01-06T04:08:49;98201.66;;;8.30;nan
9091;BME280;4581;42.416;25.598;2024-01-06T04:11:16;98198.44;;;8.26;nan
9091;BME280;4581;42.416;25.598;2024-01-06T04:13:43;98191.75;;;8.22;nan
9091;BME280;4581;42.416;25.598;2024-01-06T04:16:10;98198.44;;;8.18;nan
9091;BME280;4581;42.416;25.598;2024-01-06T04:18:37;98201.78;;;8.12;nan
9091;BME280;4581;42.416;25.598;2024-01-06T04:21:03;98194.75;;;8.11;nan
9091;BME280;4581;42.416;25.598;2024-01-06T04:23:31;98192.06;;;8.03;nan
9091;BME280;4581;42.416;25.598;2024-01-06T04:25:58;98184.84;;;8.04;nan
9091;BME280;4581;42.416;25.598;2024-01-06T04:28:25;98186.38;;;7.98;nan
9091;BME280;4581;42.416;25.598;2024-01-06T04:30:51;98186.19;;;7.91;nan
9091;BME280;4581;42.416;25.598;2024-01-06T04:33:18;98187.88;;;8.00;nan
9091;BME280;4581;42.416;25.598;2024-01-06T04:35:45;98197.44;;;8.11;nan
9091;BME280;4581;42.416;25.598;2024-01-06T04:38:12;98199.09;;;7.96;nan
9091;BME280;4581;42.416;25.598;2024-01-06T04:40:39;98194.25;;;7.99;nan
9091;BME280;4581;42.416;25.598;2024-01-06T04:43:06;98201.94;;;8.02;nan
9091;BME280;4581;42.416;25.598;2024-01-06T04:45:32;98210.53;;;7.98;nan
9091;BME280;4581;42.416;25.598;2024-01-06T04:47:59;98223.94;;;7.98;nan
9091;BME280;4581;42.416;25.598;2024-01-06T04:50:26;98224.28;;;8.03;nan
9091;BME280;4581;42.416;25.598;2024-01-06T04:52:53;98197.78;;;8.00;nan
9091;BME280;4581;42.416;25.598;2024-01-06T04:55:19;98205.66;;;7.93;nan
9091;BME280;4581;42.416;25.598;2024-01-06T04:57:48;98210.84;;;7.95;nan
9091;BME280;4581;42.416;25.598;2024-01-06T05:00:16;98212.88;;;7.93;nan
9091;BME280;4581;42.416;25.598;2024-01-06T05:02:43;98204.81;;;8.01;nan
9091;BME280;4581;42.416;25.598;2024-01-06T05:05:10;98199.94;;;7.96;nan
9091;BME280;4581;42.416;25.598;2024-01-06T05:07:37;98199.59;;;7.91;nan
9091;BME280;4581;42.416;25.598;2024-01-06T05:10:04;98199.09;;;7.96;nan
9091;BME280;4581;42.416;25.598;2024-01-06T05:12:31;98202.97;;;8.02;nan
9091;BME280;4581;42.416;25.598;2024-01-06T05:14:58;98208.50;;;7.92;nan
9091;BME280;4581;42.416;25.598;2024-01-06T05:17:25;98210.84;;;7.95;nan
9091;BME280;4581;42.416;25.598;2024-01-06T05:19:52;98205.16;;;7.90;nan
9091;BME280;4581;42.416;25.598;2024-01-06T05:22:18;98206.81;;;7.83;nan
9091;BME280;4581;42.416;25.598;2024-01-06T05:24:45;98207.31;;;7.78;nan
9091;BME280;4581;42.416;25.598;2024-01-06T05:27:13;98195.91;;;7.76;nan
9091;BME280;4581;42.416;25.598;2024-01-06T05:29:39;98191.53;;;7.75;nan
9091;BME280;4581;42.416;25.598;2024-01-06T05:32:06;98201.44;;;7.75;nan
9091;BME280;4581;42.416;25.598;2024-01-06T05:34:33;98202.75;;;7.63;nan
9091;BME280;4581;42.416;25.598;2024-01-06T05:37:00;98208.66;;;7.66;nan
9091;BME280;4581;42.416;25.598;2024-01-06T05:39:27;98206.44;;;7.53;nan
9091;BME280;4581;42.416;25.598;2024-01-06T05:41:54;98200.38;;;7.51;nan
9091;BME280;4581;42.416;25.598;2024-01-06T05:44:21;98206.59;;;7.52;nan
9091;BME280;4581;42.416;25.598;2024-01-06T05:46:47;98201.38;;;7.42;nan
9091;BME280;4581;42.416;25.598;2024-01-06T05:49:14;98190.34;;;7.45;nan
9091;BME280;4581;42.416;25.598;2024-01-06T05:51:45;98214.78;;;7.42;nan
9091;BME280;4581;42.416;25.598;2024-01-06T05:54:12;98217.47;;;7.42;nan
9091;BME280;4581;42.416;25.598;2024-01-06T05:56:39;98217.84;;;7.56;nan
9091;BME280;4581;42.416;25.598;2024-01-06T05:59:06;98222.88;;;7.59;nan
9091;BME280;4581;42.416;25.598;2024-01-06T06:01:33;98220.69;;;7.54;nan
9091;BME280;4581;42.416;25.598;2024-01-06T06:04:00;98222.56;;;7.62;nan
9091;BME280;4581;42.416;25.598;2024-01-06T06:06:27;98219.88;;;7.62;nan
9091;BME280;4581;42.416;25.598;2024-01-06T06:08:54;98225.91;;;7.64;nan
9091;BME280;4581;42.416;25.598;2024-01-06T06:11:20;98223.91;;;7.66;nan
9091;BME280;4581;42.416;25.598;2024-01-06T06:13:47;98210.50;;;7.74;nan
9091;BME280;4581;42.416;25.598;2024-01-06T06:16:14;98223.25;;;7.80;nan
9091;BME280;4581;42.416;25.598;2024-01-06T06:18:41;98216.72;;;7.90;nan
9091;BME280;4581;42.416;25.598;2024-01-06T06:21:08;98223.25;;;7.88;nan
9091;BME280;4581;42.416;25.598;2024-01-06T06:23:36;98220.09;;;7.92;nan
9091;BME280;4581;42.416;25.598;2024-01-06T06:26:07;98217.41;;;7.92;nan
9091;BME280;4581;42.416;25.598;2024-01-06T06:28:34;98211.19;;;7.92;nan
9091;BME280;4581;42.416;25.598;2024-01-06T06:31:02;98205.66;;;7.93;nan
9091;BME280;4581;42.416;25.598;2024-01-06T06:33:29;98202.78;;;8.03;nan
9091;BME280;4581;42.416;25.598;2024-01-06T06:35:56;98215.56;;;8.17;nan
9091;BME280;4581;42.416;25.598;2024-01-06T06:38:25;98210.53;;;8.14;nan
9091;BME280;4581;42.416;25.598;2024-01-06T06:40:53;98212.19;;;8.23;nan
9091;BME280;4581;42.416;25.598;2024-01-06T06:43:19;98214.88;;;8.23;nan
9091;BME280;4581;42.416;25.598;2024-01-06T06:45:46;98204.81;;;8.25;nan
9091;BME280;4581;42.416;25.598;2024-01-06T06:48:13;98208.19;;;8.35;nan
9091;BME280;4581;42.416;25.598;2024-01-06T06:50:40;98211.38;;;8.39;nan
9091;BME280;4581;42.416;25.598;2024-01-06T06:53:10;98216.41;;;8.50;nan
9091;BME280;4581;42.416;25.598;2024-01-06T06:55:37;98212.19;;;8.56;nan
9091;BME280;4581;42.416;25.598;2024-01-06T06:58:04;98204.13;;;8.64;nan
9091;BME280;4581;42.416;25.598;2024-01-06T07:00:32;98203.59;;;8.68;nan
9091;BME280;4581;42.416;25.598;2024-01-06T07:02:59;98196.88;;;8.72;nan
9091;BME280;4581;42.416;25.598;2024-01-06T07:05:26;98197.53;;;8.82;nan
9091;BME280;4581;42.416;25.598;2024-01-06T07:07:53;98200.34;;;8.97;nan
9091;BME280;4581;42.416;25.598;2024-01-06T07:10:22;98207.84;;;9.10;nan
9091;BME280;4581;42.416;25.598;2024-01-06T07:12:49;98193.53;;;9.17;nan
9091;BME280;4581;42.416;25.598;2024-01-06T07:15:16;98206.97;;;9.48;nan
9091;BME280;4581;42.416;25.598;2024-01-06T07:17:42;98190.63;;;9.58;nan
9091;BME280;4581;42.416;25.598;2024-01-06T07:20:09;98190.59;;;9.88;nan
9091;BME280;4581;42.416;25.598;2024-01-06T07:22:36;98192.06;;;9.91;nan
9091;BME280;4581;42.416;25.598;2024-01-06T07:25:03;98194.69;;;9.99;nan
9091;BME280;4581;42.416;25.598;2024-01-06T07:27:30;98186.69;;;10.14;nan
9091;BME280;4581;42.416;25.598;2024-01-06T07:29:57;98180.06;;;10.24;nan
9091;BME280;4581;42.416;25.598;2024-01-06T07:32:24;98180.72;;;10.26;nan
9091;BME280;4581;42.416;25.598;2024-01-06T07:34:51;98190.66;;;10.26;nan
9091;BME280;4581;42.416;25.598;2024-01-06T07:37:18;98194.13;;;10.35;nan
9091;BME280;4581;42.416;25.598;2024-01-06T07:39:45;98196.44;;;10.38;nan
9091;BME280;4581;42.416;25.598;2024-01-06T07:42:11;98188.16;;;10.39;nan
9091;BME280;4581;42.416;25.598;2024-01-06T07:44:38;98181.50;;;10.35;nan
9091;BME280;4581;42.416;25.598;2024-01-06T07:47:05;98178.50;;;10.45;nan
9091;BME280;4581;42.416;25.598;2024-01-06T07:49:32;98189.38;;;10.37;nan
9091;BME280;4581;42.416;25.598;2024-01-06T07:51:59;98196.03;;;10.26;nan
9091;BME280;4581;42.416;25.598;2024-01-06T07:54:26;98190.72;;;10.18;nan
9091;BME280;4581;42.416;25.598;2024-01-06T07:56:53;98192.91;;;10.37;nan
9091;BME280;4581;42.416;25.598;2024-01-06T07:59:20;98179.75;;;10.57;nan
9091;BME280;4581;42.416;25.598;2024-01-06T08:01:47;98180.69;;;10.64;nan
9091;BME280;4581;42.416;25.598;2024-01-06T08:04:14;98182.66;;;11.14;nan
9091;BME280;4581;42.416;25.598;2024-01-06T08:06:41;98177.78;;;11.24;nan
9091;BME280;4581;42.416;25.598;2024-01-06T08:09:08;98172.84;;;11.27;nan
9091;BME280;4581;42.416;25.598;2024-01-06T08:11:35;98175.75;;;11.26;nan
9091;BME280;4581;42.416;25.598;2024-01-06T08:14:01;98182.66;;;11.14;nan
9091;BME280;4581;42.416;25.598;2024-01-06T08:16:29;98170.56;;;11.10;nan
9091;BME280;4581;42.416;25.598;2024-01-06T08:18:55;98166.25;;;11.15;nan
9091;BME280;4581;42.416;25.598;2024-01-06T08:21:22;98164.59;;;11.14;nan
9091;BME280;4581;42.416;25.598;2024-01-06T08:23:50;98160.41;;;11.12;nan
9091;BME280;4581;42.416;25.598;2024-01-06T08:26:17;98170.44;;;11.03;nan
9091;BME280;4581;42.416;25.598;2024-01-06T08:28:44;98160.88;;;11.01;nan
9091;BME280;4581;42.416;25.598;2024-01-06T08:31:11;98164.97;;;10.97;nan
9091;BME280;4581;42.416;25.598;2024-01-06T08:33:38;98168.59;;;10.89;nan
9091;BME280;4581;42.416;25.598;2024-01-06T08:36:05;98160.88;;;10.71;nan
9091;BME280;4581;42.416;25.598;2024-01-06T08:38:32;98161.06;;;10.85;nan
9091;BME280;4581;42.416;25.598;2024-01-06T08:40:59;98158.28;;;10.93;nan
9091;BME280;4581;42.416;25.598;2024-01-06T08:43:26;98160.03;;;11.00;nan
9091;BME280;4581;42.416;25.598;2024-01-06T08:45:52;98166.47;;;11.14;nan
9091;BME280;4581;42.416;25.598;2024-01-06T08:48:19;98171.41;;;11.10;nan
9091;BME280;4581;42.416;25.598;2024-01-06T08:50:46;98170.81;;;11.30;nan
9091;BME280;4581;42.416;25.598;2024-01-06T08:53:13;98160.19;;;11.79;nan
9091;BME280;4581;42.416;25.598;2024-01-06T08:55:40;98167.88;;;12.24;nan
9091;BME280;4581;42.416;25.598;2024-01-06T08:58:10;98164.88;;;12.40;nan
9091;BME280;4581;42.416;25.598;2024-01-06T09:00:37;98162.94;;;12.55;nan
9091;BME280;4581;42.416;25.598;2024-01-06T09:03:04;98165.97;;;12.74;nan
9091;BME280;4581;42.416;25.598;2024-01-06T09:05:31;98153.00;;;12.35;nan
9091;BME280;4581;42.416;25.598;2024-01-06T09:07:58;98153.44;;;12.66;nan
9091;BME280;4581;42.416;25.598;2024-01-06T09:10:24;98162.53;;;12.93;nan
9091;BME280;4581;42.416;25.598;2024-01-06T09:12:51;98158.16;;;13.20;nan
9091;BME280;4581;42.416;25.598;2024-01-06T09:15:18;98152.84;;;13.46;nan
9091;BME280;4581;42.416;25.598;2024-01-06T09:17:45;98155.53;;;13.46;nan
9091;BME280;4581;42.416;25.598;2024-01-06T09:20:11;98149.53;;;13.50;nan
9091;BME280;4581;42.416;25.598;2024-01-06T09:22:38;98143.28;;;13.50;nan
9091;BME280;4581;42.416;25.598;2024-01-06T09:25:05;98146.75;;;13.37;nan
9091;BME280;4581;42.416;25.598;2024-01-06T09:27:32;98140.31;;;13.45;nan
9091;BME280;4581;42.416;25.598;2024-01-06T09:29:59;98137.13;;;13.28;nan
9091;BME280;4581;42.416;25.598;2024-01-06T09:32:26;98127.03;;;13.09;nan
9091;BME280;4581;42.416;25.598;2024-01-06T09:34:53;98127.44;;;13.06;nan
9091;BME280;4581;42.416;25.598;2024-01-06T09:37:19;98122.19;;;12.91;nan
9091;BME280;4581;42.416;25.598;2024-01-06T09:39:46;98125.34;;;13.08;nan
9091;BME280;4581;42.416;25.598;2024-01-06T09:42:13;98123.50;;;13.08;nan
9091;BME280;4581;42.416;25.598;2024-01-06T09:44:40;98112.94;;;13.13;nan
9091;BME280;4581;42.416;25.598;2024-01-06T09:47:11;98110.06;;;13.28;nan
9091;BME280;4581;42.416;25.598;2024-01-06T09:49:38;98100.53;;;13.39;nan
9091;BME280;4581;42.416;25.598;2024-01-06T09:52:13;98094.53;;;13.50;nan
9091;BME280;4581;42.416;25.598;2024-01-06T09:54:51;98084.94;;;13.60;nan
9091;BME280;4581;42.416;25.598;2024-01-06T09:57:18;98079.34;;;13.62;nan
9091;BME280;4581;42.416;25.598;2024-01-06T09:59:46;98074.16;;;13.67;nan
9091;BME280;4581;42.416;25.598;2024-01-06T10:02:15;98073.31;;;13.73;nan
9091;BME280;4581;42.416;25.598;2024-01-06T10:04:45;98063.31;;;13.80;nan
9091;BME280;4581;42.416;25.598;2024-01-06T10:07:12;98066.22;;;13.79;nan
9091;BME280;4581;42.416;25.598;2024-01-06T10:09:41;98056.84;;;13.81;nan
9091;BME280;4581;42.416;25.598;2024-01-06T10:12:11;98051.22;;;13.76;nan
9091;BME280;4581;42.416;25.598;2024-01-06T10:14:37;98054.34;;;13.86;nan
9091;BME280;4581;42.416;25.598;2024-01-06T10:17:07;98045.81;;;13.83;nan
9091;BME280;4581;42.416;25.598;2024-01-06T10:19:36;98041.41;;;13.88;nan
9091;BME280;4581;42.416;25.598;2024-01-06T10:22:05;98045.38;;;13.92;nan
9091;BME280;4581;42.416;25.598;2024-01-06T10:24:31;98040.59;;;14.01;nan
9091;BME280;4581;42.416;25.598;2024-01-06T10:26:58;98032.88;;;14.04;nan
9091;BME280;4581;42.416;25.598;2024-01-06T10:29:25;98036.00;;;14.15;nan
9091;BME280;4581;42.416;25.598;2024-01-06T10:31:54;98029.13;;;14.19;nan
9091;BME280;4581;42.416;25.598;2024-01-06T10:34:22;98022.44;;;14.01;nan
9091;BME280;4581;42.416;25.598;2024-01-06T10:36:50;98016.63;;;14.11;nan
9091;BME280;4581;42.416;25.598;2024-01-06T10:39:19;98008.47;;;14.11;nan
9091;BME280;4581;42.416;25.598;2024-01-06T10:41:50;98010.59;;;13.96;nan
9091;BME280;4581;42.416;25.598;2024-01-06T10:44:19;98006.81;;;14.03;nan
9091;BME280;4581;42.416;25.598;2024-01-06T10:46:48;98003.25;;;13.96;nan
9091;BME280;4581;42.416;25.598;2024-01-06T10:49:17;97998.91;;;14.02;nan
9091;BME280;4581;42.416;25.598;2024-01-06T10:51:45;98001.59;;;14.02;nan
9091;BME280;4581;42.416;25.598;2024-01-06T10:54:12;98004.75;;;13.99;nan
9091;BME280;4581;42.416;25.598;2024-01-06T10:56:42;97991.59;;;14.02;nan
9091;BME280;4581;42.416;25.598;2024-01-06T10:59:11;97999.09;;;14.00;nan
9091;BME280;4581;42.416;25.598;2024-01-06T11:01:39;97994.94;;;13.65;nan
9091;BME280;4581;42.416;25.598;2024-01-06T11:04:07;97994.53;;;13.88;nan
9091;BME280;4581;42.416;25.598;2024-01-06T11:06:36;97989.09;;;14.01;nan
9091;BME280;4581;42.416;25.598;2024-01-06T11:09:35;97989.09;;;14.01;nan
9091;BME280;4581;42.416;25.598;2024-01-06T11:12:04;97981.19;;;13.99;nan
9091;BME280;4581;42.416;25.598;2024-01-06T11:14:36;97978.03;;;14.02;nan
9091;BME280;4581;42.416;25.598;2024-01-06T11:17:04;97978.28;;;13.81;nan
9091;BME280;4581;42.416;25.598;2024-01-06T11:24:51;97973.28;;;13.78;nan
9091;BME280;4581;42.416;25.598;2024-01-06T11:27:25;97963.03;;;13.80;nan
9091;BME280;4581;42.416;25.598;2024-01-06T11:29:57;97964.50;;;13.76;nan
9091;BME280;4581;42.416;25.598;2024-01-06T11:34:56;97957.63;;;13.80;nan
9091;BME280;4581;42.416;25.598;2024-01-06T11:42:45;97934.31;;;13.66;nan
9091;BME280;4581;42.416;25.598;2024-01-06T11:45:12;97941.81;;;13.64;nan
9091;BME280;4581;42.416;25.598;2024-01-06T11:47:40;97933.91;;;13.56;nan
9091;BME280;4581;42.416;25.598;2024-01-06T11:50:13;97923.50;;;13.59;nan
9091;BME280;4581;42.416;25.598;2024-01-06T11:52:41;97917.63;;;13.69;nan
9091;BME280;4581;42.416;25.598;2024-01-06T11:55:08;97917.66;;;13.63;nan
9091;BME280;4581;42.416;25.598;2024-01-06T11:57:36;97914.72;;;13.64;nan
9091;BME280;4581;42.416;25.598;2024-01-06T12:00:03;97912.00;;;13.64;nan
9091;BME280;4581;42.416;25.598;2024-01-06T12:02:30;97909.94;;;13.66;nan
9091;BME280;4581;42.416;25.598;2024-01-06T12:04:57;97914.53;;;13.59;nan
9091;BME280;4581;42.416;25.598;2024-01-06T12:07:24;97909.34;;;13.51;nan
9091;BME280;4581;42.416;25.598;2024-01-06T12:10:00;97908.09;;;13.47;nan
9091;BME280;4581;42.416;25.598;2024-01-06T12:12:27;97905.38;;;13.47;nan
9091;BME280;4581;42.416;25.598;2024-01-06T12:14:54;97907.25;;;13.46;nan
9091;BME280;4581;42.416;25.598;2024-01-06T12:17:21;97902.88;;;13.45;nan
9091;BME280;4581;42.416;25.598;2024-01-06T12:19:48;97909.75;;;13.48;nan
9091;BME280;4581;42.416;25.598;2024-01-06T12:22:15;97909.13;;;13.46;nan
9091;BME280;4581;42.416;25.598;2024-01-06T12:24:43;97908.06;;;13.40;nan
9091;BME280;4581;42.416;25.598;2024-01-06T12:27:10;97914.31;;;13.41;nan
9091;BME280;4581;42.416;25.598;2024-01-06T12:29:38;97914.53;;;13.33;nan
9091;BME280;4581;42.416;25.598;2024-01-06T12:32:07;97916.19;;;13.40;nan
9091;BME280;4581;42.416;25.598;2024-01-06T12:34:35;97921.41;;;13.35;nan
9091;BME280;4581;42.416;25.598;2024-01-06T12:37:02;97913.72;;;13.39;nan
9091;BME280;4581;42.416;25.598;2024-01-06T12:39:30;97907.47;;;13.32;nan
9091;BME280;4581;42.416;25.598;2024-01-06T12:41:57;97906.41;;;13.33;nan
9091;BME280;4581;42.416;25.598;2024-01-06T12:44:27;97908.69;;;13.29;nan
9091;BME280;4581;42.416;25.598;2024-01-06T12:46:54;97909.13;;;13.20;nan
9091;BME280;4581;42.416;25.598;2024-01-06T12:49:21;97912.03;;;13.11;nan
9091;BME280;4581;42.416;25.598;2024-01-06T12:51:48;97905.13;;;13.02;nan
9091;BME280;4581;42.416;25.598;2024-01-06T12:54:15;97907.59;;;12.97;nan
9091;BME280;4581;42.416;25.598;2024-01-06T12:56:42;97898.88;;;12.95;nan
9091;BME280;4581;42.416;25.598;2024-01-06T12:59:09;97904.66;;;12.92;nan
9091;BME280;4581;42.416;25.598;2024-01-06T13:01:36;97899.25;;;12.86;nan
9091;BME280;4581;42.416;25.598;2024-01-06T13:04:03;97900.91;;;12.80;nan
9091;BME280;4581;42.416;25.598;2024-01-06T13:06:30;97895.47;;;12.80;nan
9091;BME280;4581;42.416;25.598;2024-01-06T13:08:57;97897.78;;;12.77;nan
9091;BME280;4581;42.416;25.598;2024-01-06T13:11:24;97901.13;;;12.79;nan
9091;BME280;4581;42.416;25.598;2024-01-06T13:13:51;97897.56;;;12.78;nan
9091;BME280;4581;42.416;25.598;2024-01-06T13:16:17;97897.16;;;12.75;nan
9091;BME280;4581;42.416;25.598;2024-01-06T13:18:44;97892.56;;;12.68;nan
9091;BME280;4581;42.416;25.598;2024-01-06T13:21:11;97890.06;;;12.74;nan
9091;BME280;4581;42.416;25.598;2024-01-06T13:23:38;97883.81;;;12.66;nan
9091;BME280;4581;42.416;25.598;2024-01-06T13:26:05;97892.13;;;12.58;nan
9091;BME280;4581;42.416;25.598;2024-01-06T13:28:31;97886.72;;;12.58;nan
9091;BME280;4581;42.416;25.598;2024-01-06T13:30:58;97885.88;;;12.58;nan
9091;BME280;4581;42.416;25.598;2024-01-06T13:33:25;97882.53;;;12.56;nan
9091;BME280;4581;42.416;25.598;2024-01-06T13:35:52;97886.28;;;12.55;nan
9091;BME280;4581;42.416;25.598;2024-01-06T13:38:19;97874.00;;;12.52;nan
9091;BME280;4581;42.416;25.598;2024-01-06T13:40:46;97887.50;;;12.52;nan
9091;BME280;4581;42.416;25.598;2024-01-06T13:43:13;97873.38;;;12.57;nan
9091;BME280;4581;42.416;25.598;2024-01-06T13:45:43;97879.22;;;12.54;nan
9091;BME280;4581;42.416;25.598;2024-01-06T13:48:11;97870.44;;;12.52;nan
9091;BME280;4581;42.416;25.598;2024-01-06T13:50:38;97869.59;;;12.45;nan
9091;BME280;4581;42.416;25.598;2024-01-06T13:53:05;97852.97;;;12.48;nan